LQTZ/TZL METAR and TAF weather

Enter ICAO airport designator
Station Type Date Time Source
LQTZ METAR 2024/04/17 17:30 UTC NOAA

LQTZ 171730Z VRB01KT 9999 SCT030 BKN040 05/04 Q1005


Station Type Date Time Source
LQTZ Decoded METAR 2024/04/17 17:30 UTC NOAA

Tuzla, Bosnia and Herzegovina (LQTZ) 44-33N 018-42E
Apr 17, 2024 - 01:30 PM EDT / 2024.04.17 1730 UTC
Wind: Variable at 1 MPH (1 KT):0
Visibility: greater than 7 mile(s):0
Sky conditions: mostly cloudy
Temperature: 41 F (5 C)
Dew Point: 39 F (4 C)
Relative Humidity: 93%
Pressure (altimeter): 29.68 in. Hg (1005 hPa)
ob: LQTZ 171730Z VRB01KT 9999 SCT030 BKN040 05/04 Q1005
cycle: 17

Station Type Date Time Source
LQTZ TAF 2024/04/17 18:06 UTC NOAA